AGROMETEOROLOŠKI PORTAL

vinorodna pokrajina

Temelj dobrega kmetovanja

Pregled podatkov za lokacijo Špičnik, meteorološka postaja 513654

Pregled senzorjev na lokaciji

ID Ime Zadnja
vrednost
Datum in čas
meritve
(lokalni čas)
Tip
senzorja
6402 Omočenost lista (1,5 m) (U) 10 U 25.9.2022 23:30 A730WET
6401 Padavine (mm) 0 mm 25.9.2022 23:30 Generic 0.2 mm
6404 Relativna zračna vlaga (2 m) (%RH) 100 %RH 25.9.2022 23:30 50YA
6403 Temperatura (2 m) (°C) 12,2 °C 25.9.2022 23:30 50YA

Pregled podatkov zadnjih 24 ur

Zap.
št.
Datum in čas
(lokalni čas)
Špičnik
Omočenost
lista
(1,5
m)
Padavine Relativna
zračna
vlaga
(2
m)
Temperatura
(2
m)
1 25.9.2022 23:30 10 0 100 12,2
2 25.9.2022 23:00 10 0 100 12,2
3 25.9.2022 22:30 10 0,2 100 12,3
4 25.9.2022 22:00 10 0 100 12,3
5 25.9.2022 21:30 10 0 100 12,4
6 25.9.2022 21:00 10 0 100 12,4
7 25.9.2022 20:30 10 0 100 12,5
8 25.9.2022 20:00 10 0 100 12,4
9 25.9.2022 19:30 10 0,2 100 12,5
10 25.9.2022 19:00 4 0 100 12,6
11 25.9.2022 18:30 3 0 100 12,7
12 25.9.2022 18:00 3 0 100 12,9
13 25.9.2022 17:30 9 0 100 13
14 25.9.2022 17:00 10 0,2 100 13
15 25.9.2022 16:30 10 0 100 12,9
16 25.9.2022 16:00 10 0 100 13,3
17 25.9.2022 15:30 4 0,2 100 13
18 25.9.2022 15:00 8 0 100 12,7
19 25.9.2022 14:30 10 0,2 100 12,6
20 25.9.2022 14:00 9 0,2 100 12,3
21 25.9.2022 13:30 9 0,4 100 12,4
22 25.9.2022 13:00 9 0,4 100 12,4
23 25.9.2022 12:30 9 0,2 100 12,6
24 25.9.2022 12:00 9 0,6 100 12,7
25 25.9.2022 11:30 9 0 100 12,7
26 25.9.2022 11:00 8 0,4 100 12,3
27 25.9.2022 10:30 7 0,8 100 11,9
28 25.9.2022 10:00 8 1 100 11,7
29 25.9.2022 09:30 8 1 100 11,4
30 25.9.2022 09:00 9 1,4 100 11,1
31 25.9.2022 08:30 9 0,4 100 11,1
32 25.9.2022 08:00 9 0,8 100 10,7
33 25.9.2022 07:30 9 0 100 10,5
34 25.9.2022 07:00 10 0,4 100 10,2
35 25.9.2022 06:30 10 0,2 100 10
36 25.9.2022 06:00 10 0 100 10
37 25.9.2022 05:30 10 0,2 100 9,9
38 25.9.2022 05:00 10 0 100 9,9
39 25.9.2022 04:30 10 0 100 9,5
40 25.9.2022 04:00 10 0 100 9,2
41 25.9.2022 03:30 10 0 100 8,9
42 25.9.2022 03:00 10 0 100 8,5
43 25.9.2022 02:30 10 0 100 8,2
44 25.9.2022 02:00 10 0 100 8,3
45 25.9.2022 01:30 10 0 100 8,6
46 25.9.2022 01:00 10 0 100 8,7